Time;durP1;ratioP1;P1;durP2;ratioP2;P2;SDS_P1;SDS_P2;PMS_P1;PMS_P2;Temp;Humidity;BMP_temperature;BMP_pressure;BME280_temperature;BME280_humidity;BME280_pressure;Samples;Min_cycle;Max_cycle;Signal;HPM_P1;HPM_P2
2021/08/28 00:00:23;;;;;;;19.17;10.13;;;13.40;99.90;;;;;;4124612;28;20054;-65
2021/08/28 00:02:25;;;;;;;17.07;10.07;;;13.40;99.90;;;;;;4123463;28;20025;-66
2021/08/28 00:04:26;;;;;;;19.10;10.03;;;13.40;99.90;;;;;;4124991;28;20035;-65
2021/08/28 00:06:28;;;;;;;15.73;10.60;;;13.40;99.90;;;;;;4123721;28;20467;-65
2021/08/28 00:08:29;;;;;;;17.83;11.37;;;13.30;99.90;;;;;;4124678;28;20109;-65
2021/08/28 00:10:30;;;;;;;15.60;11.00;;;13.30;99.90;;;;;;4123657;28;20066;-65
2021/08/28 00:12:32;;;;;;;20.10;11.83;;;13.30;99.90;;;;;;4124204;28;20042;-66
2021/08/28 00:14:33;;;;;;;18.30;11.63;;;13.30;99.90;;;;;;4124096;28;20491;-65
2021/08/28 00:16:34;;;;;;;20.70;11.43;;;13.30;99.90;;;;;;4124523;28;20042;-65
2021/08/28 00:18:36;;;;;;;21.47;12.47;;;13.30;99.90;;;;;;4124005;28;20538;-66
2021/08/28 00:20:39;;;;;;;24.00;13.90;;;13.30;99.90;;;;;;4123755;28;20548;-65
2021/08/28 00:22:40;;;;;;;20.30;13.40;;;13.30;99.90;;;;;;4124594;28;20574;-65
2021/08/28 00:24:41;;;;;;;18.00;11.57;;;13.30;99.90;;;;;;4122878;28;20922;-66
2021/08/28 00:26:42;;;;;;;18.93;11.77;;;13.30;99.90;;;;;;4124823;28;20533;-64
2021/08/28 00:28:43;;;;;;;25.80;12.83;;;13.30;99.90;;;;;;4123740;28;20038;-65
2021/08/28 00:30:45;;;;;;;17.30;11.17;;;13.40;99.90;;;;;;4123845;28;20419;-65
2021/08/28 00:32:46;;;;;;;16.30;11.33;;;13.40;99.90;;;;;;4123635;28;20533;-65
2021/08/28 00:34:47;;;;;;;20.47;12.30;;;13.40;99.90;;;;;;4124693;28;20042;-66
2021/08/28 00:36:48;;;;;;;19.87;12.03;;;13.40;99.90;;;;;;4126285;28;20092;-66
2021/08/28 00:38:49;;;;;;;19.27;12.00;;;13.50;99.90;;;;;;4127341;28;20487;-65
2021/08/28 00:40:50;;;;;;;16.63;11.10;;;13.50;99.90;;;;;;4125865;28;20379;-65
2021/08/28 00:42:51;;;;;;;17.17;10.83;;;13.50;99.90;;;;;;4127719;28;20542;-66
2021/08/28 00:44:53;;;;;;;18.30;10.40;;;13.50;99.90;;;;;;4126676;28;20097;-66
2021/08/28 00:46:55;;;;;;;17.23;10.40;;;13.50;99.90;;;;;;4126563;28;20039;-68
2021/08/28 00:49:01;;;;;;;21.53;11.47;;;13.50;99.90;;;;;;4127663;28;20050;-67
2021/08/28 00:51:02;;;;;;;20.03;12.40;;;13.50;99.90;;;;;;4126722;28;20046;-66
2021/08/28 00:53:05;;;;;;;25.57;11.37;;;13.40;99.90;;;;;;4126467;28;20085;-66
2021/08/28 00:55:07;;;;;;;19.87;11.47;;;13.40;99.90;;;;;;4126263;28;20027;-66
2021/08/28 00:57:09;;;;;;;15.53;10.57;;;13.50;99.90;;;;;;4127263;28;20038;-66
2021/08/28 00:59:10;;;;;;;17.87;10.63;;;13.50;99.90;;;;;;4126104;28;20426;-66
2021/08/28 01:01:23;;;;;;;10.90;8.60;;;13.50;99.90;;;;;;4127315;28;20371;-66
2021/08/28 01:03:26;;;;;;;15.83;8.97;;;13.60;99.90;;;;;;4125617;28;20034;-66
2021/08/28 01:05:42;;;;;;;12.87;8.33;;;13.60;99.90;;;;;;4125750;28;20104;-66
2021/08/28 01:07:51;;;;;;;14.57;8.97;;;13.70;99.90;;;;;;4126079;28;20039;-67
2021/08/28 01:10:00;;;;;;;14.37;9.40;;;13.70;99.90;;;;;;4127179;28;20557;-66
2021/08/28 01:12:19;;;;;;;12.63;8.48;;;13.70;99.90;;;;;;4125650;28;20034;-66
2021/08/28 01:14:25;;;;;;;15.40;9.17;;;13.60;99.90;;;;;;4127327;28;20038;-66
2021/08/28 01:16:29;;;;;;;16.00;10.20;;;13.60;99.90;;;;;;4109631;28;20105;-66
2021/08/28 01:18:30;;;;;;;16.20;10.50;;;13.50;99.90;;;;;;4110873;28;20031;-66
2021/08/28 01:20:49;;;;;;;18.47;9.47;;;13.40;99.90;;;;;;4109623;28;20051;-67
2021/08/28 01:22:51;;;;;;;14.20;9.43;;;13.40;99.90;;;;;;4111081;28;20063;-67
2021/08/28 01:24:53;;;;;;;12.85;9.50;;;13.40;99.90;;;;;;4119011;28;20159;-67
2021/08/28 01:27:00;;;;;;;19.90;10.43;;;13.40;99.90;;;;;;4127064;28;20034;-67
2021/08/28 01:29:21;;;;;;;12.87;9.20;;;13.40;99.90;;;;;;4125404;28;20042;-66
2021/08/28 01:31:23;;;;;;;14.73;9.70;;;13.50;99.90;;;;;;4127086;28;20085;-66
2021/08/28 01:33:25;;;;;;;13.97;8.83;;;13.50;99.90;;;;;;4125585;28;20036;-66
2021/08/28 01:35:26;;;;;;;14.30;8.57;;;13.50;99.90;;;;;;4126795;28;20144;-67
2021/08/28 01:37:28;;;;;;;17.33;7.87;;;13.50;99.90;;;;;;4125003;28;20069;-66
2021/08/28 01:39:32;;;;;;;15.93;7.77;;;13.50;99.90;;;;;;4126962;28;20034;-66
2021/08/28 01:41:34;;;;;;;11.53;7.00;;;13.40;99.90;;;;;;4139931;28;20427;-66
2021/08/28 01:43:35;;;;;;;12.57;8.60;;;13.40;99.90;;;;;;4126830;28;20554;-67
2021/08/28 01:45:37;;;;;;;14.13;8.20;;;13.40;99.90;;;;;;4125381;28;20086;-66
2021/08/28 01:47:40;;;;;;;12.93;9.20;;;13.40;99.90;;;;;;4125954;28;20034;-67
2021/08/28 01:49:42;;;;;;;14.53;8.57;;;13.30;99.90;;;;;;4125707;28;20026;-66
2021/08/28 01:51:45;;;;;;;12.93;8.33;;;13.40;99.90;;;;;;4125938;28;20471;-67
2021/08/28 01:53:46;;;;;;;10.73;8.20;;;13.40;99.90;;;;;;4126223;28;20865;-66
2021/08/28 01:55:47;;;;;;;14.63;7.77;;;13.40;99.90;;;;;;4125350;28;20093;-66
2021/08/28 01:57:48;;;;;;;12.77;7.97;;;13.50;99.90;;;;;;4125832;28;20093;-67
2021/08/28 01:59:50;;;;;;;12.53;7.60;;;13.40;99.90;;;;;;4125328;28;20022;-67
2021/08/28 02:01:51;;;;;;;12.03;7.87;;;13.40;99.90;;;;;;4126009;28;20034;-66
2021/08/28 02:03:53;;;;;;;15.13;9.77;;;13.40;99.90;;;;;;4125423;28;20034;-66
2021/08/28 02:06:03;;;;;;;14.20;9.03;;;13.30;99.90;;;;;;4126279;28;20598;-66
2021/08/28 02:08:06;;;;;;;;;;;13.30;99.90;;;;;;4125278;28;20886;-67
2021/08/28 02:10:20;;;;;;;16.47;9.83;;;13.30;99.90;;;;;;4126416;28;19956;-66
2021/08/28 02:12:43;;;;;;;17.10;10.13;;;13.30;99.90;;;;;;4125300;28;20023;-67
2021/08/28 02:14:50;;;;;;;16.77;11.13;;;13.30;99.90;;;;;;4125967;28;20418;-66
2021/08/28 02:16:51;;;;;;;18.70;10.77;;;13.30;99.90;;;;;;4123629;28;20042;-67
2021/08/28 02:18:59;;;;;;;18.53;11.53;;;13.20;99.90;;;;;;4125731;28;20026;-66
2021/08/28 02:21:03;;;;;;;19.70;11.57;;;13.20;99.90;;;;;;4124390;28;20112;-68
2021/08/28 02:23:11;;;;;;;18.63;11.77;;;13.20;99.90;;;;;;4125771;28;20058;-67
2021/08/28 02:25:19;;;;;;;21.33;12.87;;;13.20;99.90;;;;;;4124283;28;20173;-66
2021/08/28 02:27:38;;;;;;;19.40;11.23;;;13.20;99.90;;;;;;4125664;28;20038;-67
2021/08/28 02:29:55;;;;;;;19.43;11.70;;;13.20;99.90;;;;;;4124579;28;20034;-67
2021/08/28 02:31:59;;;;;;;21.70;11.90;;;13.20;99.90;;;;;;4125952;28;20061;-68
2021/08/28 02:34:02;;;;;;;20.00;11.87;;;13.20;99.90;;;;;;4124627;28;20042;-66
2021/08/28 02:36:04;;;;;;;21.97;13.27;;;13.20;99.90;;;;;;4126160;28;20085;-66
2021/08/28 02:38:06;;;;;;;19.17;13.03;;;13.20;99.90;;;;;;4124808;28;20434;-67
2021/08/28 02:40:10;;;;;;;21.30;12.27;;;13.20;99.90;;;;;;4125181;28;20038;-67
2021/08/28 02:42:13;;;;;;;17.53;12.30;;;13.20;99.90;;;;;;4124288;28;20046;-67
2021/08/28 02:44:15;;;;;;;20.67;11.87;;;13.20;99.90;;;;;;4125915;28;20434;-67
2021/08/28 02:46:17;;;;;;;17.70;12.17;;;13.20;99.90;;;;;;4124134;28;20066;-66
2021/08/28 02:48:21;;;;;;;15.20;10.07;;;13.20;99.90;;;;;;4125651;28;20042;-66
2021/08/28 02:50:25;;;;;;;18.30;11.60;;;13.20;99.90;;;;;;4124350;28;20026;-66
2021/08/28 02:52:28;;;;;;;21.47;11.43;;;13.20;99.90;;;;;;4123723;28;20038;-66
2021/08/28 02:54:31;;;;;;;18.03;12.30;;;13.10;99.90;;;;;;4124909;28;20034;-68
2021/08/28 02:56:32;;;;;;;17.90;12.50;;;13.10;99.90;;;;;;4124799;28;20042;-67
2021/08/28 02:58:35;;;;;;;21.00;12.17;;;13.10;99.90;;;;;;4123951;28;20030;-66
2021/08/28 03:00:37;;;;;;;16.40;10.83;;;13.10;99.90;;;;;;4124327;28;20089;-66
2021/08/28 03:02:39;;;;;;;17.33;10.47;;;13.10;99.90;;;;;;4124956;28;20042;-66
2021/08/28 03:04:40;;;;;;;18.80;10.93;;;13.00;99.90;;;;;;4124224;28;20034;-67
2021/08/28 03:06:42;;;;;;;19.33;12.33;;;13.00;99.90;;;;;;4125496;28;20108;-66
2021/08/28 03:08:44;;;;;;;19.50;11.83;;;13.00;99.90;;;;;;4123910;28;20094;-67
2021/08/28 03:10:47;;;;;;;17.23;10.93;;;13.00;99.90;;;;;;4125611;28;20360;-66
2021/08/28 03:12:49;;;;;;;17.17;10.63;;;13.00;99.90;;;;;;4123965;28;20034;-67
2021/08/28 03:14:52;;;;;;;15.47;9.87;;;13.00;99.90;;;;;;4125488;28;20549;-66
2021/08/28 03:16:55;;;;;;;14.93;9.47;;;13.10;99.90;;;;;;4124095;28;20427;-67
2021/08/28 03:18:58;;;;;;;16.20;10.40;;;13.10;99.90;;;;;;4125172;28;20078;-67
2021/08/28 03:20:59;;;;;;;20.10;11.53;;;13.10;99.90;;;;;;4124086;28;20077;-66
2021/08/28 03:23:02;;;;;;;25.97;11.93;;;13.10;99.90;;;;;;4125319;28;20058;-66
2021/08/28 03:25:06;;;;;;;17.73;10.33;;;13.10;99.90;;;;;;4123883;28;20030;-66
2021/08/28 03:27:08;;;;;;;16.90;9.43;;;13.00;99.90;;;;;;4125010;28;20080;-67
2021/08/28 03:29:10;;;;;;;19.07;11.13;;;13.00;99.90;;;;;;4124081;28;20042;-65
2021/08/28 03:31:12;;;;;;;23.17;12.50;;;13.00;99.90;;;;;;4124431;28;20038;-67
2021/08/28 03:33:16;;;;;;;25.73;13.63;;;13.00;99.90;;;;;;4124298;28;20081;-66
2021/08/28 03:35:18;;;;;;;20.67;12.30;;;13.00;99.90;;;;;;4123423;28;20097;-67
2021/08/28 03:37:20;;;;;;;20.47;12.17;;;13.00;99.90;;;;;;4124957;28;20034;-67
2021/08/28 03:39:21;;;;;;;20.50;12.63;;;12.90;99.90;;;;;;4123498;28;20552;-66
2021/08/28 03:41:23;;;;;;;21.90;12.33;;;12.90;99.90;;;;;;4124957;28;20050;-66
2021/08/28 03:43:24;;;;;;;18.37;11.53;;;12.90;99.90;;;;;;4138567;28;20092;-66
2021/08/28 03:45:29;;;;;;;18.07;12.47;;;12.90;99.90;;;;;;4125016;28;20096;-67
2021/08/28 03:47:32;;;;;;;20.77;12.13;;;13.00;99.90;;;;;;4123629;28;20026;-66
2021/08/28 03:49:33;;;;;;;22.77;14.00;;;13.00;99.90;;;;;;4124390;28;20105;-66
2021/08/28 03:51:34;;;;;;;25.77;14.63;;;13.00;99.90;;;;;;4123245;28;20034;-65
2021/08/28 03:53:35;;;;;;;21.70;14.47;;;13.00;99.90;;;;;;4123709;28;20482;-66
2021/08/28 03:55:36;;;;;;;24.63;14.53;;;13.00;99.90;;;;;;4122182;28;20042;-66
2021/08/28 03:57:37;;;;;;;20.90;13.60;;;13.00;99.90;;;;;;4125171;28;20042;-67
2021/08/28 03:59:38;;;;;;;26.60;14.33;;;13.00;99.90;;;;;;4123197;28;20023;-66
2021/08/28 04:01:39;;;;;;;22.47;14.93;;;13.10;99.90;;;;;;4124544;28;20046;-67
2021/08/28 04:03:41;;;;;;;19.70;13.50;;;13.10;99.90;;;;;;4124218;28;20635;-66
2021/08/28 04:05:42;;;;;;;20.17;12.87;;;13.10;99.90;;;;;;4123716;28;20069;-67
2021/08/28 04:07:43;;;;;;;21.37;14.00;;;13.10;99.90;;;;;;4124166;28;20038;-67
2021/08/28 04:09:44;;;;;;;22.87;14.60;;;13.10;99.90;;;;;;4125031;28;20434;-67
2021/08/28 04:11:45;;;;;;;22.33;13.70;;;13.10;99.90;;;;;;4127717;28;20553;-67
2021/08/28 04:13:46;;;;;;;24.30;14.03;;;13.10;99.90;;;;;;4126783;28;20050;-66
2021/08/28 04:15:47;;;;;;;20.23;13.77;;;13.10;99.90;;;;;;4127896;28;20101;-66
2021/08/28 04:17:49;;;;;;;22.37;14.30;;;13.10;99.90;;;;;;4126184;28;20092;-66
2021/08/28 04:19:50;;;;;;;27.17;15.03;;;13.10;99.90;;;;;;4126966;28;20058;-66
2021/08/28 04:21:51;;;;;;;22.80;15.10;;;13.10;99.90;;;;;;4125655;28;20101;-67
2021/08/28 04:23:52;;;;;;;23.93;14.10;;;13.10;99.90;;;;;;4127896;28;20438;-66
2021/08/28 04:25:53;;;;;;;22.67;13.20;;;13.10;99.90;;;;;;4126575;28;20442;-67
2021/08/28 04:27:54;;;;;;;22.97;13.40;;;13.10;99.90;;;;;;4127955;28;20092;-67
2021/08/28 04:29:55;;;;;;;19.37;13.93;;;13.20;99.90;;;;;;4126206;28;20022;-68
2021/08/28 04:31:56;;;;;;;23.23;13.90;;;13.20;99.90;;;;;;4126661;28;20042;-67
2021/08/28 04:33:58;;;;;;;24.40;13.93;;;13.20;99.90;;;;;;4127180;28;20042;-67
2021/08/28 04:35:59;;;;;;;23.00;14.00;;;13.20;99.90;;;;;;4125809;28;20085;-67
2021/08/28 04:38:00;;;;;;;21.47;13.77;;;13.20;99.90;;;;;;4127610;28;20913;-67
2021/08/28 04:40:01;;;;;;;19.17;13.43;;;13.20;99.90;;;;;;4125679;28;20042;-67
2021/08/28 04:42:03;;;;;;;19.83;13.00;;;13.20;99.90;;;;;;4127357;28;20046;-67
2021/08/28 04:44:04;;;;;;;26.43;14.47;;;13.30;99.90;;;;;;4126425;28;20062;-66
2021/08/28 04:46:06;;;;;;;21.97;13.57;;;13.30;99.90;;;;;;4126213;28;20046;-66
2021/08/28 04:48:07;;;;;;;23.57;13.10;;;13.30;99.90;;;;;;4126118;28;20081;-65
2021/08/28 04:50:08;;;;;;;23.10;14.93;;;13.30;99.90;;;;;;4126774;28;20038;-66
2021/08/28 04:52:10;;;;;;;19.87;13.03;;;13.40;99.90;;;;;;4125952;28;20893;-65
2021/08/28 04:54:11;;;;;;;21.10;13.87;;;13.40;99.90;;;;;;4126880;28;20042;-66
2021/08/28 04:56:12;;;;;;;21.60;13.60;;;13.40;99.90;;;;;;4125595;28;20077;-66
2021/08/28 04:58:13;;;;;;;21.33;14.27;;;13.40;99.90;;;;;;4127143;28;20080;-66
2021/08/28 05:00:14;;;;;;;21.97;13.00;;;13.50;99.90;;;;;;4125605;28;20030;-66
2021/08/28 05:02:15;;;;;;;18.77;12.77;;;13.50;99.90;;;;;;4125983;28;20042;-66
2021/08/28 05:04:17;;;;;;;20.40;12.80;;;13.50;99.90;;;;;;4125996;28;20022;-66
2021/08/28 05:06:18;;;;;;;24.20;13.77;;;13.50;99.90;;;;;;4124207;28;20088;-66
2021/08/28 05:08:21;;;;;;;20.57;12.27;;;13.50;99.90;;;;;;4126123;28;20046;-66
2021/08/28 05:10:23;;;;;;;20.90;13.03;;;13.50;99.90;;;;;;4125556;28;20053;-66
2021/08/28 05:12:24;;;;;;;20.83;13.50;;;13.50;99.90;;;;;;4140143;28;20502;-66
2021/08/28 05:14:25;;;;;;;21.70;13.20;;;13.50;99.90;;;;;;4125854;28;20156;-66
2021/08/28 05:16:26;;;;;;;24.57;14.93;;;13.60;99.90;;;;;;4126831;28;20042;-67
2021/08/28 05:18:27;;;;;;;26.57;15.73;;;13.60;99.90;;;;;;4124980;28;20092;-65
2021/08/28 05:20:28;;;;;;;21.63;14.20;;;13.60;99.90;;;;;;4126249;28;20034;-66
2021/08/28 05:22:29;;;;;;;23.80;15.03;;;13.70;99.90;;;;;;4124729;28;20062;-66
2021/08/28 05:24:34;;;;;;;21.37;14.40;;;13.80;99.90;;;;;;4126841;28;20029;-66
2021/08/28 05:26:35;;;;;;;19.83;14.73;;;13.80;99.90;;;;;;4125311;28;20449;-65
2021/08/28 05:28:36;;;;;;;19.50;12.93;;;13.80;99.90;;;;;;4126679;28;20042;-66
2021/08/28 05:30:38;;;;;;;19.87;13.53;;;13.90;99.90;;;;;;4125369;28;20026;-65
2021/08/28 05:32:40;;;;;;;23.23;14.37;;;13.90;99.90;;;;;;4126639;28;20414;-67
2021/08/28 05:34:41;;;;;;;21.83;13.07;;;13.90;99.90;;;;;;4126189;28;20031;-66
2021/08/28 05:36:42;;;;;;;22.87;15.87;;;14.00;99.90;;;;;;4125942;28;20067;-66
2021/08/28 05:38:43;;;;;;;21.53;14.43;;;14.00;99.90;;;;;;4124988;28;20430;-65
2021/08/28 05:40:45;;;;;;;20.53;14.23;;;14.10;99.90;;;;;;4125357;28;20533;-67
2021/08/28 05:42:46;;;;;;;23.30;14.55;;;14.20;99.90;;;;;;4126601;28;20130;-67
2021/08/28 05:44:47;;;;;;;25.20;13.73;;;14.20;99.90;;;;;;4125202;28;20054;-67
2021/08/28 05:46:48;;;;;;;21.27;13.90;;;14.30;99.90;;;;;;4125916;28;20034;-67
2021/08/28 05:48:50;;;;;;;21.92;12.82;;;14.40;99.90;;;;;;4125261;28;20034;-67
2021/08/28 05:50:51;;;;;;;21.13;14.07;;;14.50;99.90;;;;;;4125765;28;20081;-67
2021/08/28 05:52:52;;;;;;;17.27;12.35;;;14.60;99.90;;;;;;4125112;28;20038;-67
2021/08/28 05:54:53;;;;;;;19.70;12.73;;;14.70;99.90;;;;;;4124872;28;20026;-67
2021/08/28 05:56:54;;;;;;;18.38;12.23;;;14.80;99.90;;;;;;4124428;28;20589;-65
2021/08/28 05:58:55;;;;;;;20.75;13.02;;;14.90;99.90;;;;;;4126160;28;20081;-67
2021/08/28 06:00:56;;;;;;;20.10;12.45;;;14.90;99.90;;;;;;4125116;28;20034;-67
2021/08/28 06:02:57;;;;;;;21.38;11.55;;;14.90;99.90;;;;;;4125847;28;20113;-67
2021/08/28 06:04:58;;;;;;;16.02;11.73;;;15.00;99.90;;;;;;4124798;28;20089;-67
2021/08/28 06:06:59;;;;;;;18.23;12.10;;;15.00;99.90;;;;;;4125741;28;20431;-68
2021/08/28 06:09:01;;;;;;;20.83;12.13;;;15.00;99.90;;;;;;4125689;28;20093;-66
2021/08/28 06:11:02;;;;;;;19.08;12.32;;;15.00;99.90;;;;;;4124899;28;20076;-68
2021/08/28 06:13:03;;;;;;;14.95;11.00;;;15.00;99.90;;;;;;4125309;28;20038;-67
2021/08/28 06:15:05;;;;;;;13.88;10.40;;;15.10;99.90;;;;;;4125087;28;20132;-67
2021/08/28 06:17:06;;;;;;;21.98;13.13;;;15.10;99.90;;;;;;4125373;28;20596;-67
2021/08/28 06:19:07;;;;;;;17.85;11.82;;;15.00;99.90;;;;;;4124299;28;20050;-67
2021/08/28 06:21:08;;;;;;;12.00;7.80;;;14.90;99.90;;;;;;4125206;28;20479;-67
2021/08/28 06:23:11;;;;;;;12.90;8.13;;;14.90;99.90;;;;;;4124606;28;20026;-67
2021/08/28 06:25:12;;;;;;;9.70;7.28;;;14.90;99.90;;;;;;4125869;28;20038;-67
2021/08/28 06:27:13;;;;;;;12.95;8.65;;;14.90;99.90;;;;;;4124332;28;20038;-67
2021/08/28 06:29:14;;;;;;;11.45;7.15;;;15.00;99.90;;;;;;4125218;28;20061;-67
2021/08/28 06:31:15;;;;;;;10.05;6.53;;;15.10;99.90;;;;;;4124053;28;20038;-68
2021/08/28 06:33:16;;;;;;;10.30;5.85;;;15.20;99.90;;;;;;4123772;28;20042;-67
2021/08/28 06:35:18;;;;;;;8.35;6.20;;;15.30;99.90;;;;;;4124596;28;20031;-67
2021/08/28 06:37:19;;;;;;;10.77;6.78;;;15.40;99.90;;;;;;4125132;28;20034;-66
2021/08/28 06:39:20;;;;;;;10.45;6.55;;;15.40;99.90;;;;;;4125340;28;20453;-66
2021/08/28 06:41:21;;;;;;;6.95;4.28;;;15.40;99.90;;;;;;4124642;28;20054;-69
2021/08/28 06:43:22;;;;;;;7.57;4.85;;;15.40;99.90;;;;;;4124957;28;20088;-67
2021/08/28 06:45:24;;;;;;;7.95;5.53;;;15.40;99.90;;;;;;4124378;28;20133;-66
2021/08/28 06:47:27;;;;;;;7.25;4.63;;;15.40;99.90;;;;;;4125279;28;20108;-67
2021/08/28 06:49:28;;;;;;;9.85;5.95;;;15.40;99.90;;;;;;4124129;28;20034;-67
2021/08/28 06:51:29;;;;;;;10.90;7.25;;;15.40;99.90;;;;;;4125387;28;20038;-66
2021/08/28 06:53:30;;;;;;;9.98;6.93;;;15.40;99.90;;;;;;4124082;28;20081;-66
2021/08/28 06:55:31;;;;;;;11.65;7.00;;;15.50;99.90;;;;;;4125296;28;20842;-66
2021/08/28 06:57:33;;;;;;;10.45;6.95;;;15.60;99.90;;;;;;4123531;28;20438;-66
2021/08/28 06:59:34;;;;;;;10.27;7.10;;;15.70;99.90;;;;;;4125436;28;20030;-66
2021/08/28 07:01:35;;;;;;;10.40;6.85;;;15.80;99.90;;;;;;4123426;28;20034;-66
2021/08/28 07:03:36;;;;;;;14.85;6.72;;;16.00;99.90;;;;;;4123724;28;20112;-67
2021/08/28 07:05:37;;;;;;;8.52;5.85;;;16.20;99.90;;;;;;4123735;28;20485;-67
2021/08/28 07:07:38;;;;;;;9.10;5.75;;;16.10;99.90;;;;;;4124586;28;20080;-66
2021/08/28 07:09:40;;;;;;;7.43;5.60;;;16.10;99.90;;;;;;4123709;28;20869;-66
2021/08/28 07:11:41;;;;;;;10.45;5.55;;;16.10;99.90;;;;;;4122846;28;20077;-66
2021/08/28 07:13:42;;;;;;;8.23;5.30;;;16.20;99.90;;;;;;4124112;28;20034;-67
2021/08/28 07:15:43;;;;;;;37.42;22.65;;;16.10;99.90;;;;;;4124016;28;20434;-66
2021/08/28 07:17:44;;;;;;;5.70;4.32;;;16.10;99.90;;;;;;4124655;28;20097;-66
2021/08/28 07:19:45;;;;;;;5.30;4.32;;;16.20;99.90;;;;;;4123156;28;20435;-66
2021/08/28 07:21:46;;;;;;;5.90;4.25;;;16.00;99.90;;;;;;4123903;28;20046;-65
2021/08/28 07:23:48;;;;;;;8.07;4.25;;;16.00;99.90;;;;;;4123183;28;20145;-66
2021/08/28 07:25:49;;;;;;;9.48;4.47;;;16.00;99.90;;;;;;4124853;28;20081;-66
2021/08/28 07:27:50;;;;;;;5.38;3.25;;;16.00;99.90;;;;;;4123392;28;20544;-66
2021/08/28 07:29:51;;;;;;;5.28;4.03;;;16.00;99.90;;;;;;4124498;28;20038;-65
2021/08/28 07:31:52;;;;;;;6.57;3.85;;;16.00;99.90;;;;;;4123403;28;20026;-65
2021/08/28 07:33:54;;;;;;;6.43;3.40;;;15.90;99.90;;;;;;4124005;28;20038;-66
2021/08/28 07:35:55;;;;;;;2.75;2.15;;;16.00;99.90;;;;;;4123787;28;20081;-65
2021/08/28 07:37:56;;;;;;;3.00;1.90;;;16.00;99.90;;;;;;4123992;28;20031;-65
2021/08/28 07:39:57;;;;;;;2.60;2.20;;;16.00;99.90;;;;;;4123578;28;20029;-64
2021/08/28 07:41:58;;;;;;;5.85;2.55;;;16.30;99.90;;;;;;4123521;28;20045;-65
2021/08/28 07:43:59;;;;;;;3.90;2.90;;;16.50;99.90;;;;;;4126199;28;20069;-63
2021/08/28 07:46:00;;;;;;;4.30;2.72;;;16.80;99.90;;;;;;4129116;28;20477;-65
2021/08/28 07:48:02;;;;;;;5.32;3.00;;;16.90;99.90;;;;;;4129734;28;20483;-64
2021/08/28 07:50:04;;;;;;;4.38;2.83;;;16.90;99.90;;;;;;4128438;28;20042;-65
2021/08/28 07:52:05;;;;;;;4.90;2.85;;;16.80;99.90;;;;;;4130001;28;20051;-66
2021/08/28 07:54:06;;;;;;;6.00;3.75;;;16.80;99.90;;;;;;4128642;28;20467;-63
2021/08/28 07:56:08;;;;;;;4.07;3.05;;;16.90;99.90;;;;;;4129754;28;20057;-63
2021/08/28 07:58:09;;;;;;;4.80;2.83;;;16.80;99.90;;;;;;4128604;28;20049;-62
2021/08/28 08:00:11;;;;;;;4.32;3.25;;;16.80;99.90;;;;;;4129590;28;20038;-63
2021/08/28 08:02:13;;;;;;;4.43;2.85;;;16.70;99.90;;;;;;4128352;28;20054;-63
2021/08/28 08:04:14;;;;;;;4.05;2.85;;;16.60;99.90;;;;;;4130067;28;20038;-63
2021/08/28 08:06:15;;;;;;;2.90;2.40;;;16.60;99.90;;;;;;4128793;28;20104;-63
2021/08/28 08:08:16;;;;;;;5.10;3.20;;;16.60;99.90;;;;;;4128767;28;20089;-63
2021/08/28 08:10:17;;;;;;;7.88;3.88;;;16.60;99.90;;;;;;4128945;28;20823;-62
2021/08/28 08:12:18;;;;;;;6.20;3.10;;;16.60;99.90;;;;;;4128474;28;20540;-63
2021/08/28 08:14:19;;;;;;;5.45;3.38;;;16.50;99.90;;;;;;4129376;28;20414;-63
2021/08/28 08:16:20;;;;;;;6.80;3.22;;;16.50;99.90;;;;;;4128445;28;20042;-64
2021/08/28 08:18:22;;;;;;;4.60;2.88;;;16.40;99.90;;;;;;4129277;28;20042;-69
2021/08/28 08:20:25;;;;;;;4.35;3.17;;;16.40;99.90;;;;;;4128152;28;20042;-70
2021/08/28 08:22:26;;;;;;;4.82;3.25;;;16.40;99.90;;;;;;4129279;28;20058;-68
2021/08/28 08:24:27;;;;;;;4.72;3.00;;;16.40;99.90;;;;;;4128093;28;20034;-66
2021/08/28 08:26:28;;;;;;;3.58;2.83;;;16.50;99.90;;;;;;4128296;28;20089;-67
2021/08/28 08:28:29;;;;;;;3.63;3.10;;;16.60;99.90;;;;;;4128032;28;20034;-65
2021/08/28 08:30:31;;;;;;;3.38;2.40;;;16.60;99.90;;;;;;4129534;28;20486;-66
2021/08/28 08:32:33;;;;;;;5.10;3.30;;;16.60;99.90;;;;;;4127783;28;20038;-65
2021/08/28 08:34:34;;;;;;;5.63;3.45;;;16.60;99.90;;;;;;4128200;28;20030;-67
2021/08/28 08:36:35;;;;;;;3.83;2.78;;;16.70;99.90;;;;;;4126695;28;20042;-64
2021/08/28 08:38:36;;;;;;;5.20;3.35;;;16.70;99.90;;;;;;4127908;28;20088;-63
2021/08/28 08:40:39;;;;;;;5.80;2.83;;;16.70;99.90;;;;;;4127421;28;20061;-64
2021/08/28 08:42:41;;;;;;;6.22;2.33;;;16.70;99.90;;;;;;4127722;28;20058;-61
2021/08/28 08:44:44;;;;;;;4.10;2.47;;;16.80;99.90;;;;;;4128462;28;20034;-66
2021/08/28 08:46:47;;;;;;;4.05;3.03;;;16.80;99.90;;;;;;4127697;28;20054;-65
2021/08/28 08:48:50;;;;;;;3.38;2.60;;;16.90;99.90;;;;;;4127263;28;20026;-63
2021/08/28 08:50:52;;;;;;;4.22;2.60;;;16.90;99.90;;;;;;4126799;28;20120;-65
2021/08/28 08:52:57;;;;;;;5.85;2.92;;;16.80;99.90;;;;;;4141630;28;20046;-68
2021/08/28 08:54:59;;;;;;;3.45;2.63;;;16.80;99.90;;;;;;4126745;28;20022;-69
2021/08/28 08:57:00;;;;;;;4.25;2.35;;;16.80;99.90;;;;;;4124419;28;20049;-64
2021/08/28 08:59:01;;;;;;;5.38;3.65;;;16.80;99.90;;;;;;4124063;28;20050;-65
2021/08/28 09:01:04;;;;;;;4.40;2.70;;;16.80;99.90;;;;;;4125365;28;20046;-65
2021/08/28 09:03:05;;;;;;;3.90;3.03;;;16.70;99.90;;;;;;4124581;28;20376;-64
2021/08/28 09:05:06;;;;;;;4.20;2.67;;;16.70;99.90;;;;;;4125189;28;20034;-64
2021/08/28 09:07:12;;;;;;;5.72;3.05;;;16.70;99.90;;;;;;4124273;28;20026;-64
2021/08/28 09:09:13;;;;;;;4.43;2.95;;;16.70;99.90;;;;;;4125347;28;20061;-66
2021/08/28 09:11:33;;;;;;;7.70;3.20;;;16.50;99.90;;;;;;4124228;28;20027;-65
2021/08/28 09:13:34;;;;;;;3.83;2.70;;;16.50;99.90;;;;;;4125320;28;20445;-64
2021/08/28 09:15:46;;;;;;;5.90;3.47;;;16.60;99.90;;;;;;4124447;28;20713;-63
2021/08/28 09:17:59;;;;;;;3.85;2.80;;;16.70;99.90;;;;;;4124995;28;20154;-64
2021/08/28 09:20:02;;;;;;;7.68;3.28;;;16.70;99.90;;;;;;4124069;28;20112;-64
2021/08/28 09:22:08;;;;;;;6.05;3.47;;;16.70;99.90;;;;;;4125284;28;20113;-63
2021/08/28 09:24:12;;;;;;;4.95;3.13;;;16.80;99.90;;;;;;4122173;28;20042;-65
2021/08/28 09:26:34;;;;;;;5.80;3.17;;;16.80;99.90;;;;;;4109140;28;20774;-65
2021/08/28 09:28:35;;;;;;;5.35;3.17;;;16.90;99.90;;;;;;4120412;28;20088;-66
2021/08/28 09:30:38;;;;;;;4.88;3.47;;;17.00;99.90;;;;;;4124930;28;20073;-65
2021/08/28 09:32:49;;;;;;;5.82;3.20;;;17.00;99.90;;;;;;4138278;28;20096;-66
2021/08/28 09:34:50;;;;;;;4.75;3.10;;;17.10;99.90;;;;;;4124430;28;20030;-65
2021/08/28 09:37:05;;;;;;;4.55;3.10;;;17.10;99.90;;;;;;4124413;28;20038;-66
2021/08/28 09:39:06;;;;;;;5.82;3.47;;;17.10;99.90;;;;;;4124577;28;20043;-66
2021/08/28 09:41:09;;;;;;;5.82;3.22;;;17.10;99.90;;;;;;4123092;28;20093;-66
2021/08/28 09:43:19;;;;;;;7.18;3.55;;;17.10;99.90;;;;;;4124075;28;20089;-65
2021/08/28 09:45:24;;;;;;;5.57;3.70;;;17.20;99.90;;;;;;4123324;28;20050;-64
2021/08/28 09:47:29;;;;;;;7.38;4.10;;;17.10;99.90;;;;;;4123989;28;20421;-65
2021/08/28 09:49:30;;;;;;;5.05;3.72;;;17.20;99.90;;;;;;4123814;28;20907;-66
2021/08/28 09:51:39;;;;;;;4.65;3.80;;;17.20;99.90;;;;;;4122483;28;20034;-64
2021/08/28 09:53:40;;;;;;;5.82;3.42;;;17.30;99.90;;;;;;4123232;28;20038;-65
2021/08/28 09:55:42;;;;;;;5.68;4.13;;;17.20;99.90;;;;;;4122364;28;20031;-64
2021/08/28 09:57:49;;;;;;;6.00;3.40;;;17.10;99.90;;;;;;4123949;28;20441;-65
2021/08/28 09:59:50;;;;;;;4.55;2.83;;;17.10;99.90;;;;;;4123637;28;20026;-66
2021/08/28 10:01:51;;;;;;;6.03;2.90;;;17.20;99.90;;;;;;4123329;28;20038;-62
2021/08/28 10:03:59;;;;;;;4.53;3.00;;;17.20;99.90;;;;;;4123672;28;20062;-64
2021/08/28 10:06:01;;;;;;;4.68;3.22;;;17.20;99.90;;;;;;4123911;28;20054;-65
2021/08/28 10:08:07;;;;;;;3.92;2.90;;;17.20;99.90;;;;;;4123038;28;20081;-63
2021/08/28 10:10:09;;;;;;;4.47;3.33;;;17.10;99.90;;;;;;4124174;28;20042;-65
2021/08/28 10:12:10;;;;;;;7.95;4.53;;;17.20;99.90;;;;;;4123398;28;20092;-65
2021/08/28 10:14:15;;;;;;;9.07;4.00;;;17.30;99.90;;;;;;4123987;28;20081;-67
2021/08/28 10:16:16;;;;;;;4.68;3.10;;;17.40;99.90;;;;;;4123823;28;20077;-64
2021/08/28 10:18:19;;;;;;;4.80;2.60;;;17.50;99.90;;;;;;4124222;28;20077;-66
2021/08/28 10:20:21;;;;;;;3.65;2.65;;;17.60;99.90;;;;;;4122608;28;20117;-65
2021/08/28 10:22:25;;;;;;;3.40;2.72;;;17.50;99.90;;;;;;4123341;28;20046;-66
2021/08/28 10:24:27;;;;;;;5.00;3.20;;;17.40;99.90;;;;;;4123206;28;20038;-64
2021/08/28 10:26:28;;;;;;;3.45;2.53;;;17.40;99.90;;;;;;4122070;28;20030;-63
2021/08/28 10:28:31;;;;;;;3.95;2.90;;;17.30;99.90;;;;;;4123104;28;20084;-63